Current Weather Conditions: station 44139

sailwx.info

Wind from 350 at 17 knots gusting 23

Wave height 2.3 meters (7 feet), 8 second period

Air temperature -0.6° C
Water temperature 3.8° C

Last reported at 2017-Jan-23 20:00 UTC.
Time now 2017-Jan-23 20:49 UTC

Location: N 44°12' W 057°06'.
View on Google Maps.

See reports from other nearby stations

  
Tides and Currents Weather Stations Pressure Air Temp Water Temp Dewpoint Dewpoint Depression Visibility Wind Speed Wind Dir Waves Ship Positions
date/time (UTC)wind fromknots sea level pressurealtimeterstation pressurevisibilityair tempwater tempwave heightnotes
2017-Jan-23 20:00 350 17 gusting 23 -0.6 3.8 2.3
2017-Jan-23 19:00 330 17 gusting 21 -0.7 3.9 2.4
2017-Jan-23 18:00 350 19 gusting 23 -1.2 3.9 2.5
2017-Jan-23 17:00 350 19 -1.3
2017-Jan-23 16:00 350 19 gusting 23 -1.5 3.8 2.2
2017-Jan-23 15:00 350 19 gusting 25 -1.4 4.1 2.2
2017-Jan-23 14:00 340 21 gusting 25 -1.5 4.2 2.1
2017-Jan-23 13:00 340 19 gusting 23 -0.4 4.3 2.0
2017-Jan-23 12:00 340 21 gusting 25 0.2 4.2 1.7
2017-Jan-23 11:00 340 19 gusting 27 0.9 4.1 1.7
2017-Jan-23 10:00 350 19 gusting 23 1.0 4.2 1.6
2017-Jan-23 09:00 340 19 gusting 25 1.0 4.2 1.7
2017-Jan-23 08:00 360 19 gusting 23 1.1 4.3 1.8
2017-Jan-23 07:00 1.0 4.3 1.7
2017-Jan-23 06:00 020 17 gusting 21 0.7 4.3 1.8
2017-Jan-23 05:00 0.1 4.2 1.9
2017-Jan-23 04:00 350 19 gusting 23 0.1 4.1 1.7
2017-Jan-23 03:00 350 15 gusting 21 0.7 4.0 1.7
2017-Jan-23 02:00 360 17 gusting 23 0.3 4.0 1.6
2017-Jan-23 01:00 350 17 0.6 4.1 1.7
2017-Jan-23 00:00 360 17 gusting 21 1.3 4.1 1.7
2017-Jan-22 23:00 350 17 gusting 21 1.5 4.1 1.7
2017-Jan-22 21:00 340 19 gusting 23 1.5 4.1 1.6
2017-Jan-22 20:00 350 19 gusting 23 1.3 4.0 1.6
2017-Jan-22 19:00 330 19 gusting 23 1.3 4.1 1.5
2017-Jan-22 18:00 320 19 gusting 23 2.0 4.0 1.6
2017-Jan-22 17:00 290 17 gusting 19 2.5 4.0 1.5
2017-Jan-22 16:00 220 11 gusting 13 3.4 4.0 1.5
2017-Jan-22 15:00 190 13 gusting 15 3.4 3.9 1.6
2017-Jan-22 14:00 190 13 gusting 15 3.3 3.7 1.6
2017-Jan-22 13:00 200 13 gusting 15 3.1 3.6 1.6
2017-Jan-22 12:00 190 9 gusting 11 2.7 3.8 1.7
2017-Jan-22 11:00 210 7 gusting 9 2.5 3.7 1.7
2017-Jan-22 10:00 250 7 gusting 9 2.3 3.6 2.0
2017-Jan-22 09:00 270 11 gusting 13 1.9 3.8 1.9
2017-Jan-22 08:00 280 11 gusting 15 1.7 3.8 2.0
2017-Jan-22 07:00 280 15 gusting 19 1.5 3.7 2.1
2017-Jan-22 06:00 270 13 gusting 15 1.4 3.7 2.2
2017-Jan-22 05:00 280 13 gusting 17 0.9 3.6 2.4
2017-Jan-22 04:00 270 13 gusting 17 1.3 3.7 2.7
2017-Jan-22 03:00 280 15 gusting 19 0.9 3.8 2.8
2017-Jan-22 01:00 290 17 0.9 3.6 3.2
2017-Jan-22 00:00 300 15 gusting 19 1.5 3.5 3.6
2017-Jan-21 23:00 300 17 gusting 19 1.2 3.4 3.6
2017-Jan-21 22:00 310 17 gusting 21 1.2 3.4 3.8
2017-Jan-21 21:00 320 19 gusting 25 1.0 3.4 4.1
2017-Jan-21 20:00 310 21 gusting 27 0.8 3.4 4.0